Time;durP1;ratioP1;P1;durP2;ratioP2;P2;SDS_P1;SDS_P2;PMS_P1;PMS_P2;Temp;Humidity;BMP_temperature;BMP_pressure;BME280_temperature;BME280_humidity;BME280_pressure;Samples;Min_cycle;Max_cycle;Signal;HPM_P1;HPM_P2
2021/07/07 00:00:07;;;;;;;4.65;4.25;;;23.20;83.50;;;;;;5099075;28;20481;-87
2021/07/07 00:02:32;;;;;;;4.30;3.95;;;23.10;83.60;;;;;;5098448;28;20034;-87
2021/07/07 00:04:58;;;;;;;5.80;5.20;;;23.10;84.00;;;;;;5097866;28;20031;-87
2021/07/07 00:07:24;;;;;;;6.68;5.30;;;23.10;84.50;;;;;;5098169;28;20531;-87
2021/07/07 00:09:49;;;;;;;5.57;4.40;;;23.00;84.90;;;;;;5098296;28;20424;-88
2021/07/07 00:12:15;;;;;;;7.00;5.47;;;22.90;85.50;;;;;;5097624;28;20028;-87
2021/07/07 00:14:41;;;;;;;5.68;4.85;;;22.80;86.00;;;;;;5116151;28;20545;-87
2021/07/07 00:17:07;;;;;;;4.68;4.28;;;22.70;86.10;;;;;;5097839;28;20382;-87
2021/07/07 00:19:33;;;;;;;4.78;3.80;;;22.70;86.50;;;;;;5115937;28;20034;-87
2021/07/07 00:21:59;;;;;;;3.92;3.58;;;22.70;86.40;;;;;;5115913;28;20020;-87
2021/07/07 00:24:28;;;;;;;4.50;4.10;;;22.70;86.50;;;;;;5097498;28;20034;-87
2021/07/07 00:26:54;;;;;;;4.25;3.85;;;22.70;86.60;;;;;;5115694;28;20129;-88
2021/07/07 00:29:19;;;;;;;5.10;4.30;;;22.80;86.60;;;;;;5097612;28;20110;-88
2021/07/07 00:31:45;;;;;;;5.30;4.15;;;22.80;86.40;;;;;;5099050;28;20381;-87
2021/07/07 00:34:11;;;;;;;4.57;4.10;;;22.80;86.20;;;;;;5101310;28;20088;-87
2021/07/07 00:36:36;;;;;;;5.28;4.28;;;22.60;86.30;;;;;;5101757;28;20118;-88
2021/07/07 00:39:03;;;;;;;4.78;4.28;;;22.60;86.50;;;;;;5119617;28;20034;-87
2021/07/07 00:41:29;;;;;;;4.25;3.85;;;22.50;86.80;;;;;;5103416;28;20072;-87
2021/07/07 00:43:55;;;;;;;4.40;4.00;;;22.50;87.00;;;;;;5098521;28;20059;-87
2021/07/07 00:46:21;;;;;;;4.57;3.88;;;22.40;86.80;;;;;;5097618;28;20101;-87
2021/07/07 00:48:47;;;;;;;4.72;3.72;;;22.40;87.00;;;;;;5096543;28;20446;-88
2021/07/07 00:51:14;;;;;;;3.35;3.05;;;22.50;86.40;;;;;;5101508;28;20023;-87
2021/07/07 00:53:42;;;;;;;4.20;3.78;;;22.40;86.00;;;;;;5101616;28;20019;-87
2021/07/07 00:56:10;;;;;;;3.80;3.40;;;22.40;86.10;;;;;;5101437;28;20028;-87
2021/07/07 00:58:37;;;;;;;4.20;3.80;;;22.50;86.00;;;;;;5102110;28;20032;-88
2021/07/07 01:01:04;;;;;;;3.33;3.03;;;22.50;85.60;;;;;;5101320;28;20051;-87
2021/07/07 01:03:31;;;;;;;3.47;3.17;;;22.60;84.90;;;;;;5101199;28;20023;-88
2021/07/07 01:05:56;;;;;;;3.42;2.97;;;22.60;84.30;;;;;;5101887;28;20032;-87
2021/07/07 01:08:22;;;;;;;3.55;3.08;;;22.50;84.20;;;;;;5101980;28;20027;-87
2021/07/07 01:10:48;;;;;;;3.85;3.15;;;22.50;83.80;;;;;;5100678;28;20028;-89
2021/07/07 01:13:13;;;;;;;4.68;3.08;;;22.40;84.20;;;;;;5101314;28;20031;-88
2021/07/07 01:15:45;;;;;;;7.05;3.00;;;22.40;84.00;;;;;;5100199;28;20470;-87
2021/07/07 01:18:11;;;;;;;3.38;3.08;;;22.30;84.30;;;;;;5118874;28;20028;-87
2021/07/07 01:20:39;;;;;;;3.28;2.90;;;22.30;84.80;;;;;;5098309;28;20053;-87
2021/07/07 01:23:06;;;;;;;3.20;2.90;;;22.30;84.60;;;;;;5096225;28;20154;-87
2021/07/07 01:25:33;;;;;;;4.95;2.95;;;22.30;84.40;;;;;;5114621;28;20035;-87
2021/07/07 01:28:02;;;;;;;3.10;2.80;;;22.40;84.30;;;;;;5097144;28;20084;-87
2021/07/07 01:30:28;;;;;;;3.03;2.67;;;22.40;83.90;;;;;;5096918;28;20466;-87
2021/07/07 01:32:54;;;;;;;4.25;3.25;;;22.50;83.20;;;;;;5115424;28;20053;-87
2021/07/07 01:35:20;;;;;;;3.17;2.88;;;22.60;82.20;;;;;;5096731;28;20373;-86
2021/07/07 01:37:47;;;;;;;3.55;3.10;;;22.50;81.50;;;;;;5096853;28;20031;-87
2021/07/07 01:40:15;;;;;;;3.20;2.90;;;22.40;82.00;;;;;;5097435;28;20020;-87
2021/07/07 01:42:41;;;;;;;3.15;2.85;;;22.30;81.90;;;;;;5096102;28;20034;-88
2021/07/07 01:45:09;;;;;;;3.28;2.97;;;22.20;82.10;;;;;;5096290;28;20490;-87
2021/07/07 01:47:35;;;;;;;4.00;3.60;;;22.20;82.60;;;;;;5096530;28;20020;-86
2021/07/07 01:50:01;;;;;;;3.83;3.42;;;22.20;82.90;;;;;;5095878;28;20026;-87
2021/07/07 01:52:27;;;;;;;4.10;3.42;;;22.20;83.00;;;;;;5114539;28;20080;-87
2021/07/07 01:54:53;;;;;;;4.53;3.70;;;22.20;83.20;;;;;;5095835;28;20073;-87
2021/07/07 01:57:19;;;;;;;4.70;3.63;;;22.20;83.80;;;;;;5114477;28;20023;-87
2021/07/07 01:59:44;;;;;;;4.32;3.92;;;22.20;83.80;;;;;;5098350;28;20028;-87
2021/07/07 02:02:10;;;;;;;5.50;4.57;;;22.20;84.00;;;;;;5118734;28;20020;-87
2021/07/07 02:04:36;;;;;;;4.65;4.00;;;22.00;84.20;;;;;;5100609;28;20047;-87
2021/07/07 02:07:03;;;;;;;5.10;4.00;;;22.00;84.80;;;;;;5118460;28;20031;-87
2021/07/07 02:09:28;;;;;;;5.15;4.13;;;22.00;85.20;;;;;;5100336;28;20027;-87
2021/07/07 02:11:54;;;;;;;4.35;3.95;;;22.00;85.20;;;;;;5100019;28;20028;-87
2021/07/07 02:14:20;;;;;;;4.10;3.70;;;22.00;85.10;;;;;;5100328;28;20024;-87
2021/07/07 02:16:46;;;;;;;5.03;4.53;;;22.10;85.20;;;;;;5100029;28;20028;-88
2021/07/07 02:19:13;;;;;;;5.53;3.90;;;22.30;84.30;;;;;;5118219;28;20023;-87
2021/07/07 02:21:39;;;;;;;3.55;3.25;;;22.30;84.00;;;;;;5100286;28;20467;-88
2021/07/07 02:24:05;;;;;;;3.90;3.47;;;22.20;84.00;;;;;;5100169;28;20031;-87
2021/07/07 02:26:31;;;;;;;4.85;3.88;;;22.20;83.70;;;;;;5118091;28;20027;-87
2021/07/07 02:28:57;;;;;;;3.85;3.55;;;22.10;83.50;;;;;;5117955;28;20027;-87
2021/07/07 02:31:22;;;;;;;4.25;3.85;;;22.10;83.70;;;;;;5101370;28;20024;-88
2021/07/07 02:33:48;;;;;;;3.47;3.17;;;22.00;83.40;;;;;;5101471;28;20066;-87
2021/07/07 02:36:14;;;;;;;3.50;3.20;;;21.90;83.50;;;;;;5102871;28;20020;-88
2021/07/07 02:38:40;;;;;;;3.20;2.90;;;21.90;83.80;;;;;;5104268;28;20024;-87
2021/07/07 02:41:06;;;;;;;3.90;3.42;;;21.90;84.10;;;;;;5103535;28;20389;-87
2021/07/07 02:43:32;;;;;;;4.47;3.47;;;22.10;83.70;;;;;;5099758;28;20496;-86
2021/07/07 02:45:58;;;;;;;3.55;3.20;;;22.20;82.90;;;;;;5099381;28;20115;-87
2021/07/07 02:48:23;;;;;;;3.67;3.35;;;22.20;82.70;;;;;;5099079;28;20529;-88
2021/07/07 02:50:50;;;;;;;3.28;2.97;;;22.30;82.60;;;;;;5098856;28;20424;-87
2021/07/07 02:53:17;;;;;;;3.85;3.45;;;22.40;82.10;;;;;;5099655;28;20023;-87
2021/07/07 02:55:44;;;;;;;3.92;3.40;;;22.60;81.50;;;;;;5099192;28;20024;-87
2021/07/07 02:58:13;;;;;;;4.45;3.10;;;22.60;80.60;;;;;;5118474;28;20031;-89
2021/07/07 03:00:47;;;;;;;3.60;3.22;;;22.50;80.50;;;;;;5120156;28;20042;-88
2021/07/07 03:03:21;;;;;;;4.10;3.13;;;22.50;80.40;;;;;;5118346;28;20084;-87
2021/07/07 03:05:53;;;;;;;3.75;3.08;;;22.50;80.60;;;;;;5101693;28;20066;-88
2021/07/07 03:08:23;;;;;;;4.40;3.08;;;22.50;80.80;;;;;;5100510;28;20374;-87
2021/07/07 03:10:50;;;;;;;3.40;2.88;;;22.60;80.70;;;;;;5099068;28;20024;-88
2021/07/07 03:13:20;;;;;;;3.88;3.08;;;22.60;80.30;;;;;;5100158;28;20046;-89
2021/07/07 03:15:46;;;;;;;4.13;3.10;;;22.70;80.10;;;;;;5100024;28;20491;-86
2021/07/07 03:18:12;;;;;;;3.95;2.75;;;22.70;80.20;;;;;;5100451;28;20423;-88
2021/07/07 03:20:40;;;;;;;5.07;3.00;;;22.80;79.70;;;;;;5100090;28;20118;-88
2021/07/07 03:23:07;;;;;;;10.48;3.70;;;22.90;79.40;;;;;;5098866;28;20067;-87
2021/07/07 03:25:33;;;;;;;4.75;3.35;;;22.90;78.60;;;;;;5098719;28;20389;-87
2021/07/07 03:27:59;;;;;;;3.10;2.80;;;22.90;78.60;;;;;;5098527;28;20110;-87
2021/07/07 03:30:25;;;;;;;3.40;3.10;;;22.90;78.80;;;;;;5098798;28;20061;-88
2021/07/07 03:32:53;;;;;;;3.85;2.72;;;23.00;78.50;;;;;;5098567;28;20066;-87
2021/07/07 03:35:19;;;;;;;3.30;2.97;;;23.00;78.00;;;;;;5098388;28;20024;-86
2021/07/07 03:37:45;;;;;;;3.58;3.10;;;23.10;77.90;;;;;;5098631;28;20043;-87
2021/07/07 03:40:11;;;;;;;4.88;3.10;;;23.20;77.50;;;;;;5098514;28;20035;-88
2021/07/07 03:42:38;;;;;;;3.65;3.25;;;23.30;77.20;;;;;;5098110;28;20035;-89
2021/07/07 03:45:05;;;;;;;3.05;2.85;;;23.50;75.90;;;;;;5097943;28;20126;-88
2021/07/07 03:47:31;;;;;;;3.25;2.95;;;23.50;75.50;;;;;;5098335;28;20038;-88
2021/07/07 03:49:57;;;;;;;3.50;3.20;;;23.60;75.30;;;;;;5098508;28;20024;-88
2021/07/07 03:52:22;;;;;;;3.75;3.28;;;23.60;75.30;;;;;;5098350;28;20027;-88
2021/07/07 03:54:48;;;;;;;3.35;3.05;;;23.60;75.20;;;;;;5097996;28;20020;-88
2021/07/07 03:57:13;;;;;;;4.45;3.22;;;23.70;75.10;;;;;;5097936;28;20470;-88
2021/07/07 03:59:40;;;;;;;3.55;2.92;;;23.80;74.70;;;;;;5098151;28;20478;-88
2021/07/07 04:02:06;;;;;;;3.35;3.03;;;23.90;74.50;;;;;;5116385;28;20076;-88
2021/07/07 04:04:32;;;;;;;3.83;3.42;;;23.90;74.10;;;;;;5098029;28;20067;-88
2021/07/07 04:06:59;;;;;;;3.33;2.85;;;24.00;74.10;;;;;;5097642;28;20066;-88
2021/07/07 04:09:28;;;;;;;3.28;2.97;;;24.10;74.00;;;;;;5097926;28;20119;-86
2021/07/07 04:11:55;;;;;;;4.15;2.97;;;24.10;73.60;;;;;;5116100;28;20015;-88
2021/07/07 04:14:23;;;;;;;3.03;2.80;;;24.20;73.30;;;;;;5116397;28;20027;-88
2021/07/07 04:16:56;;;;;;;3.40;3.10;;;24.20;73.00;;;;;;5116037;28;20424;-87
2021/07/07 04:19:22;;;;;;;3.33;3.03;;;24.30;72.90;;;;;;5097884;28;20027;-89
2021/07/07 04:21:47;;;;;;;3.58;3.28;;;24.20;72.40;;;;;;5097563;28;20122;-88
2021/07/07 04:24:14;;;;;;;3.80;3.35;;;24.20;72.70;;;;;;5096570;28;20463;-87
2021/07/07 04:26:40;;;;;;;2.95;2.72;;;24.20;72.30;;;;;;5097434;28;20031;-86
2021/07/07 04:29:06;;;;;;;3.90;3.33;;;24.30;72.10;;;;;;5097694;28;20497;-86
2021/07/07 04:31:33;;;;;;;3.13;2.90;;;24.30;71.60;;;;;;5099157;28;20023;-88
2021/07/07 04:33:59;;;;;;;3.33;2.95;;;24.20;71.80;;;;;;5102006;28;20473;-89
2021/07/07 04:36:24;;;;;;;3.85;2.83;;;24.30;71.60;;;;;;5103526;28;20031;-86
2021/07/07 04:38:50;;;;;;;3.20;2.90;;;24.20;71.70;;;;;;5105031;28;20570;-87
2021/07/07 04:41:16;;;;;;;3.45;3.15;;;24.20;71.70;;;;;;5108208;28;20118;-87
2021/07/07 04:43:41;;;;;;;5.13;2.88;;;24.20;71.80;;;;;;5105871;28;20547;-87
2021/07/07 04:46:09;;;;;;;3.30;2.80;;;24.10;71.60;;;;;;5097323;28;20066;-87
2021/07/07 04:48:35;;;;;;;3.05;2.70;;;24.10;71.60;;;;;;5097477;28;20031;-87
2021/07/07 04:51:01;;;;;;;3.60;2.70;;;24.00;72.30;;;;;;5097078;28;20096;-86
2021/07/07 04:53:29;;;;;;;3.08;2.78;;;24.00;71.70;;;;;;5098231;28;20578;-87
2021/07/07 04:55:54;;;;;;;4.07;3.30;;;24.10;71.70;;;;;;5116368;28;20024;-87
2021/07/07 04:58:21;;;;;;;3.78;3.33;;;24.10;71.40;;;;;;5098157;28;20031;-86
2021/07/07 05:00:46;;;;;;;2.97;2.67;;;24.00;71.30;;;;;;5097955;28;20031;-87
2021/07/07 05:03:12;;;;;;;3.13;2.70;;;23.90;71.60;;;;;;5096828;28;20391;-87
2021/07/07 05:05:38;;;;;;;3.70;3.00;;;23.90;71.80;;;;;;5096232;28;20316;-87
2021/07/07 05:08:04;;;;;;;3.80;3.22;;;23.80;71.80;;;;;;5098999;28;20023;-86
2021/07/07 05:10:31;;;;;;;2.85;2.60;;;23.70;71.70;;;;;;5100752;28;20030;-87
2021/07/07 05:12:58;;;;;;;3.63;2.67;;;23.70;72.30;;;;;;5096598;28;20027;-87
2021/07/07 05:15:24;;;;;;;2.78;2.58;;;23.70;72.70;;;;;;5096947;28;20470;-87
2021/07/07 05:17:50;;;;;;;3.22;2.92;;;23.80;72.60;;;;;;5096638;28;20034;-88
2021/07/07 05:20:18;;;;;;;3.13;2.83;;;23.90;72.40;;;;;;5096606;28;20039;-87
2021/07/07 05:22:44;;;;;;;3.67;3.00;;;24.10;72.40;;;;;;5096305;28;20031;-87
2021/07/07 05:25:14;;;;;;;3.00;2.70;;;24.10;72.00;;;;;;5098408;28;20401;-85
2021/07/07 05:27:40;;;;;;;3.22;2.92;;;24.30;71.90;;;;;;5096861;28;20145;-86
2021/07/07 05:30:07;;;;;;;3.75;3.25;;;24.40;71.70;;;;;;5097487;28;20164;-86
2021/07/07 05:32:34;;;;;;;3.20;2.90;;;24.50;71.40;;;;;;5097669;28;20473;-86
2021/07/07 05:35:00;;;;;;;3.58;3.10;;;24.70;71.10;;;;;;5096224;28;20051;-86
2021/07/07 05:37:26;;;;;;;3.08;2.78;;;24.80;70.60;;;;;;5099018;28;20036;-86
2021/07/07 05:39:53;;;;;;;3.25;2.92;;;24.90;70.00;;;;;;5118785;28;20027;-86
2021/07/07 05:42:20;;;;;;;3.17;2.72;;;25.00;69.40;;;;;;5099252;28;20054;-87
2021/07/07 05:44:48;;;;;;;3.45;3.10;;;25.10;69.50;;;;;;5098652;28;20062;-87
2021/07/07 05:47:15;;;;;;;3.33;2.70;;;25.10;69.20;;;;;;5098942;28;20077;-86
2021/07/07 05:49:43;;;;;;;2.50;2.30;;;25.20;69.10;;;;;;5099877;28;20023;-86
2021/07/07 05:52:10;;;;;;;2.60;2.40;;;25.40;69.20;;;;;;5099843;28;20027;-87
2021/07/07 05:54:37;;;;;;;2.78;2.58;;;25.50;68.50;;;;;;5117368;28;20020;-87
2021/07/07 05:57:03;;;;;;;4.57;3.03;;;25.50;67.60;;;;;;5097033;28;20439;-86
2021/07/07 05:59:29;;;;;;;3.00;2.70;;;25.50;67.50;;;;;;5097014;28;20032;-87
2021/07/07 06:01:55;;;;;;;2.67;2.47;;;25.50;67.60;;;;;;5098674;28;20112;-87
2021/07/07 06:04:20;;;;;;;3.28;2.97;;;25.50;67.70;;;;;;5097309;28;20490;-87
2021/07/07 06:06:46;;;;;;;2.53;2.33;;;25.50;67.60;;;;;;5096691;28;20466;-87
2021/07/07 06:09:14;;;;;;;3.10;2.80;;;25.50;67.70;;;;;;5096105;28;20054;-87
2021/07/07 06:11:40;;;;;;;3.08;2.83;;;25.60;67.60;;;;;;5096210;28;20537;-87
2021/07/07 06:14:06;;;;;;;2.65;2.45;;;25.70;67.30;;;;;;5096800;28;20062;-87
2021/07/07 06:16:32;;;;;;;3.22;2.97;;;25.70;67.20;;;;;;5095852;28;20030;-87
2021/07/07 06:18:58;;;;;;;3.42;3.13;;;25.80;67.00;;;;;;5095285;28;20027;-87
2021/07/07 06:21:24;;;;;;;4.45;2.78;;;25.80;66.20;;;;;;5095906;28;20065;-87
2021/07/07 06:23:53;;;;;;;5.05;3.10;;;25.90;66.10;;;;;;5097313;28;20036;-87
2021/07/07 06:26:21;;;;;;;3.60;2.85;;;25.90;65.90;;;;;;5098410;28;20024;-87
2021/07/07 06:28:47;;;;;;;3.03;2.83;;;26.10;66.00;;;;;;5095992;28;20024;-87
2021/07/07 06:31:16;;;;;;;3.88;2.60;;;26.30;65.80;;;;;;5095502;28;20024;-87
2021/07/07 06:33:44;;;;;;;3.00;2.70;;;26.60;65.10;;;;;;5096280;28;20028;-86
2021/07/07 06:36:13;;;;;;;2.63;2.42;;;26.80;64.30;;;;;;5096005;28;20047;-88
2021/07/07 06:38:41;;;;;;;2.70;2.50;;;26.90;64.10;;;;;;5103456;28;20027;-89
2021/07/07 06:41:07;;;;;;;3.28;2.78;;;27.10;63.50;;;;;;5105347;28;20020;-89
2021/07/07 06:43:33;;;;;;;3.33;2.97;;;27.10;62.90;;;;;;5106388;28;20056;-88
2021/07/07 06:45:59;;;;;;;2.92;2.58;;;27.20;62.40;;;;;;5106949;28;20035;-88
2021/07/07 06:48:24;;;;;;;3.97;3.15;;;27.10;62.40;;;;;;5107960;28;20442;-89
2021/07/07 06:50:50;;;;;;;3.83;3.10;;;27.10;62.00;;;;;;5120912;28;20094;-87
2021/07/07 06:53:16;;;;;;;3.00;2.67;;;27.00;62.30;;;;;;5099829;28;20022;-87
2021/07/07 06:55:42;;;;;;;4.07;2.60;;;27.00;62.60;;;;;;5100276;28;20035;-87
2021/07/07 06:58:12;;;;;;;3.15;2.53;;;27.00;62.40;;;;;;5098758;28;20020;-87
2021/07/07 07:00:39;;;;;;;3.22;2.90;;;26.90;62.30;;;;;;5098775;28;20061;-88
2021/07/07 07:03:05;;;;;;;3.10;2.58;;;26.90;62.30;;;;;;5117014;28;20385;-88
2021/07/07 07:05:33;;;;;;;2.92;2.72;;;26.80;62.20;;;;;;5100348;28;20028;-88
2021/07/07 07:07:58;;;;;;;3.15;2.85;;;26.60;62.50;;;;;;5098662;28;20036;-86
2021/07/07 07:10:24;;;;;;;3.53;3.22;;;26.50;62.90;;;;;;5098602;28;20123;-87
2021/07/07 07:12:50;;;;;;;4.72;3.70;;;26.40;63.00;;;;;;5117011;28;20392;-88
2021/07/07 07:15:16;;;;;;;3.40;3.10;;;26.20;63.20;;;;;;5117145;28;20031;-88
2021/07/07 07:17:42;;;;;;;3.63;2.92;;;26.00;63.70;;;;;;5116985;28;20019;-87
2021/07/07 07:20:14;;;;;;;3.17;2.70;;;25.90;64.50;;;;;;5099423;28;20024;-87
2021/07/07 07:22:43;;;;;;;3.58;3.10;;;26.10;64.00;;;;;;5099013;28;20028;-88
2021/07/07 07:25:10;;;;;;;2.65;2.45;;;26.20;64.10;;;;;;5098487;28;20067;-87
2021/07/07 07:27:37;;;;;;;3.88;3.33;;;26.30;63.80;;;;;;5099985;28;20561;-87
2021/07/07 07:30:08;;;;;;;2.90;2.60;;;26.40;63.30;;;;;;5099181;28;20023;-87
2021/07/07 07:32:34;;;;;;;2.80;2.58;;;26.50;63.20;;;;;;5100525;28;20024;-87
2021/07/07 07:35:00;;;;;;;3.22;2.70;;;26.50;62.70;;;;;;5098674;28;20030;-87
2021/07/07 07:37:36;;;;;;;2.65;2.45;;;26.50;61.50;;;;;;5100137;28;20115;-87
2021/07/07 07:40:09;;;;;;;3.25;2.95;;;26.40;61.20;;;;;;5098582;28;20493;-89
2021/07/07 07:42:35;;;;;;;3.60;3.13;;;26.30;61.20;;;;;;5098332;28;20092;-88
2021/07/07 07:45:01;;;;;;;3.42;2.53;;;26.30;62.10;;;;;;5097691;28;20063;-87
2021/07/07 07:47:27;;;;;;;2.85;2.55;;;26.50;62.20;;;;;;5098252;28;20034;-87
2021/07/07 07:49:53;;;;;;;3.30;3.00;;;26.60;61.90;;;;;;5098051;28;20076;-87
2021/07/07 07:52:19;;;;;;;3.38;2.40;;;26.80;61.30;;;;;;5098220;28;20020;-87
2021/07/07 07:54:44;;;;;;;4.68;2.97;;;26.90;61.00;;;;;;5098759;28;20019;-87
2021/07/07 07:57:10;;;;;;;2.40;2.20;;;26.90;60.70;;;;;;5098543;28;20023;-87
2021/07/07 07:59:36;;;;;;;2.92;2.63;;;27.10;60.40;;;;;;5098375;28;20533;-87
2021/07/07 08:02:02;;;;;;;3.65;3.05;;;27.10;59.30;;;;;;5100434;28;20051;-86
2021/07/07 08:04:27;;;;;;;5.57;2.67;;;27.10;59.50;;;;;;5098841;28;20047;-86
2021/07/07 08:06:53;;;;;;;4.13;2.63;;;27.10;59.00;;;;;;5098711;28;20031;-86
2021/07/07 08:09:19;;;;;;;2.92;2.72;;;27.10;59.20;;;;;;5102089;28;20118;-86
2021/07/07 08:11:46;;;;;;;3.85;2.70;;;27.20;59.20;;;;;;5099131;28;20081;-86
2021/07/07 08:14:11;;;;;;;4.80;2.70;;;27.40;58.90;;;;;;5118882;28;20078;-86
2021/07/07 08:16:38;;;;;;;2.85;2.65;;;27.60;58.50;;;;;;5083656;28;20390;-86
2021/07/07 08:19:04;;;;;;;2.95;2.75;;;27.70;57.80;;;;;;5099710;28;20386;-86
2021/07/07 08:21:29;;;;;;;3.00;2.70;;;27.60;57.80;;;;;;5098990;28;20024;-86
2021/07/07 08:23:55;;;;;;;3.03;2.75;;;27.50;58.00;;;;;;5098615;28;20030;-88
2021/07/07 08:26:21;;;;;;;3.17;2.88;;;27.50;57.90;;;;;;5098679;28;20458;-87
2021/07/07 08:28:47;;;;;;;3.53;2.90;;;27.60;57.80;;;;;;5116345;28;20058;-87
2021/07/07 08:31:12;;;;;;;2.80;2.60;;;27.70;58.00;;;;;;5098421;28;20079;-87
2021/07/07 08:33:38;;;;;;;3.60;3.10;;;27.80;58.00;;;;;;5098565;28;20481;-87
2021/07/07 08:36:04;;;;;;;3.10;2.70;;;28.10;57.90;;;;;;5097440;28;20034;-86
2021/07/07 08:38:30;;;;;;;3.25;2.92;;;28.30;57.70;;;;;;5098171;28;20028;-86
2021/07/07 08:40:56;;;;;;;3.90;3.50;;;28.40;56.70;;;;;;5097380;28;20039;-87
2021/07/07 08:43:24;;;;;;;3.85;3.15;;;28.20;56.20;;;;;;5099401;28;20051;-88
2021/07/07 08:45:53;;;;;;;4.63;3.58;;;28.10;56.50;;;;;;5103162;28;20043;-87
2021/07/07 08:48:19;;;;;;;3.50;3.20;;;28.00;56.40;;;;;;5103347;28;20363;-87
2021/07/07 08:50:45;;;;;;;4.57;3.70;;;28.00;55.60;;;;;;5101174;28;20030;-88
2021/07/07 08:53:14;;;;;;;3.53;3.22;;;27.90;55.80;;;;;;5101471;28;20122;-87
2021/07/07 08:55:42;;;;;;;4.55;3.80;;;27.90;56.10;;;;;;5104351;28;20076;-87
2021/07/07 08:58:08;;;;;;;6.63;3.53;;;28.00;55.80;;;;;;5115773;28;20019;-87
2021/07/07 09:00:36;;;;;;;5.07;3.08;;;28.10;56.00;;;;;;5097620;28;20020;-86
2021/07/07 09:03:04;;;;;;;4.63;3.13;;;28.30;56.10;;;;;;5098218;28;20032;-87
2021/07/07 09:05:31;;;;;;;4.78;3.30;;;28.50;55.80;;;;;;5117224;28;20446;-88
2021/07/07 09:08:07;;;;;;;4.53;3.50;;;28.50;54.70;;;;;;5098512;28;20039;-88
2021/07/07 09:10:33;;;;;;;4.63;2.97;;;28.60;54.90;;;;;;5097201;28;20053;-87
2021/07/07 09:13:21;;;;;;;3.70;3.03;;;28.60;54.80;;;;;;5097558;28;20024;-87
2021/07/07 09:15:47;;;;;;;3.30;3.00;;;28.70;54.30;;;;;;5097182;28;20068;-87
2021/07/07 09:18:33;;;;;;;5.03;3.55;;;28.80;55.20;;;;;;5098081;28;20028;-87
2021/07/07 09:20:59;;;;;;;4.35;2.53;;;29.00;54.40;;;;;;5096386;28;20024;-87
2021/07/07 09:23:27;;;;;;;3.20;2.83;;;29.00;54.80;;;;;;5097034;28;20040;-88
2021/07/07 09:25:58;;;;;;;3.35;3.03;;;29.10;54.80;;;;;;5089807;28;20024;-87
2021/07/07 09:28:30;;;;;;;3.38;3.08;;;29.00;54.00;;;;;;5099272;28;20024;-87
2021/07/07 09:31:01;;;;;;;4.63;2.97;;;28.90;54.10;;;;;;5114294;28;20024;-87
2021/07/07 09:33:28;;;;;;;3.58;3.28;;;28.90;54.30;;;;;;5111700;28;20102;-87
2021/07/07 09:36:25;;;;;;;4.10;3.47;;;29.00;54.20;;;;;;5114154;28;20049;-85
2021/07/07 09:38:54;;;;;;;3.35;3.05;;;28.80;53.70;;;;;;5094498;28;20027;-87
2021/07/07 09:41:20;;;;;;;5.15;3.85;;;28.70;54.40;;;;;;5096522;28;20024;-88
2021/07/07 09:43:52;;;;;;;3.60;3.28;;;28.60;54.60;;;;;;5115173;28;20089;-88
2021/07/07 09:46:19;;;;;;;3.88;3.47;;;28.50;55.00;;;;;;5096745;28;20032;-87
2021/07/07 09:48:49;;;;;;;3.92;3.45;;;28.50;55.20;;;;;;5115076;28;20026;-89
2021/07/07 09:51:17;;;;;;;5.50;3.78;;;28.30;55.70;;;;;;5095591;28;20032;-88
2021/07/07 09:53:43;;;;;;;2.92;2.72;;;28.40;55.90;;;;;;5094538;28;20458;-89
2021/07/07 09:56:11;;;;;;;4.10;3.10;;;28.50;55.90;;;;;;5097405;28;20040;-88
2021/07/07 09:58:36;;;;;;;4.35;3.55;;;28.50;55.50;;;;;;5094198;28;20033;-88
2021/07/07 10:01:03;;;;;;;4.20;3.40;;;28.50;55.40;;;;;;5111505;28;20214;-88
2021/07/07 10:03:30;;;;;;;4.55;3.30;;;28.40;55.30;;;;;;5094279;28;20434;-87
2021/07/07 10:05:58;;;;;;;5.15;3.20;;;28.30;55.50;;;;;;5094045;28;20474;-86
2021/07/07 10:08:25;;;;;;;4.15;3.20;;;28.20;56.00;;;;;;5093701;28;20049;-87
2021/07/07 10:10:52;;;;;;;3.53;3.22;;;28.10;56.20;;;;;;5093707;28;20024;-87
2021/07/07 10:13:18;;;;;;;3.40;3.10;;;28.10;56.60;;;;;;5112912;28;20032;-87
2021/07/07 10:15:52;;;;;;;3.92;3.13;;;28.20;56.70;;;;;;5112173;28;20056;-88
2021/07/07 10:18:18;;;;;;;3.75;3.35;;;28.30;56.60;;;;;;5092304;28;20035;-87
2021/07/07 10:20:45;;;;;;;3.83;3.53;;;28.30;56.00;;;;;;5113162;28;20128;-87
2021/07/07 10:23:14;;;;;;;3.38;3.08;;;28.20;56.10;;;;;;5115966;28;20050;-88
2021/07/07 10:25:46;;;;;;;3.00;2.67;;;28.20;56.30;;;;;;5097777;27;20042;-89
2021/07/07 10:28:13;;;;;;;4.03;3.20;;;28.20;56.30;;;;;;5091627;28;20107;-86
2021/07/07 10:30:58;;;;;;;3.72;3.33;;;28.20;56.40;;;;;;5097605;28;20046;-90
2021/07/07 10:33:36;;;;;;;3.10;2.80;;;28.40;55.90;;;;;;5095842;28;20065;-86
2021/07/07 10:36:14;;;;;;;5.45;3.50;;;28.50;55.60;;;;;;5097938;28;20095;-87
2021/07/07 10:38:40;;;;;;;3.50;2.83;;;28.50;54.20;;;;;;5098880;28;20027;-87
2021/07/07 10:41:06;;;;;;;3.45;2.85;;;28.50;54.80;;;;;;5098452;28;20123;-87
2021/07/07 10:43:48;;;;;;;2.95;2.53;;;28.60;54.60;;;;;;5097480;28;20146;-87
2021/07/07 10:46:52;;;;;;;4.72;2.63;;;28.80;54.70;;;;;;5116038;28;20043;-87
2021/07/07 10:49:22;;;;;;;3.55;2.58;;;28.90;54.40;;;;;;5100099;28;20036;-87
2021/07/07 10:51:54;;;;;;;7.10;3.00;;;29.10;54.40;;;;;;5119576;28;20028;-88
2021/07/07 10:54:27;;;;;;;2.95;2.67;;;29.30;54.20;;;;;;5109364;27;20034;-87
2021/07/07 10:56:54;;;;;;;4.07;2.70;;;29.50;53.10;;;;;;5105810;28;20024;-87
2021/07/07 10:59:38;;;;;;;2.70;2.50;;;29.50;52.10;;;;;;5097964;28;20066;-88
2021/07/07 11:02:09;;;;;;;4.45;2.67;;;29.50;51.20;;;;;;5095021;28;20436;-88
2021/07/07 11:04:40;;;;;;;2.92;2.42;;;29.60;52.20;;;;;;5092440;28;20099;-88
2021/07/07 11:07:30;;;;;;;5.20;2.70;;;29.70;52.50;;;;;;5098584;28;20032;-87
2021/07/07 11:10:08;;;;;;;3.35;2.78;;;29.80;52.10;;;;;;5092182;28;20076;-87
2021/07/07 11:12:40;;;;;;;2.97;2.40;;;29.80;51.90;;;;;;5091039;28;20374;-87
2021/07/07 11:15:09;;;;;;;2.58;2.38;;;29.90;52.20;;;;;;5097370;28;20023;-87
2021/07/07 11:17:49;;;;;;;2.53;2.33;;;30.00;52.20;;;;;;5092401;28;20021;-87
2021/07/07 11:20:38;;;;;;;2.63;2.42;;;30.10;52.30;;;;;;5101093;28;20100;-88
2021/07/07 11:23:08;;;;;;;3.53;2.30;;;30.20;51.60;;;;;;5080028;28;20028;-86
2021/07/07 11:25:40;;;;;;;2.30;2.10;;;30.20;51.10;;;;;;5084859;28;20051;-89
2021/07/07 11:28:30;;;;;;;6.30;2.42;;;30.00;50.20;;;;;;5095200;28;20098;-88
2021/07/07 11:31:10;;;;;;;2.90;2.70;;;29.90;50.40;;;;;;5093250;28;20028;-87
2021/07/07 11:33:37;;;;;;;3.55;2.40;;;29.70;51.40;;;;;;5079177;28;20040;-89
2021/07/07 11:36:03;;;;;;;2.75;2.50;;;29.70;52.00;;;;;;5096750;28;20027;-87
2021/07/07 11:38:29;;;;;;;2.63;2.40;;;29.70;52.10;;;;;;5078873;28;20031;-89
2021/07/07 11:40:57;;;;;;;3.60;2.20;;;29.80;51.80;;;;;;5095919;28;20024;-89
2021/07/07 11:43:31;;;;;;;2.83;2.58;;;29.80;51.90;;;;;;5097047;28;20039;-89
2021/07/07 11:46:02;;;;;;;1.90;1.80;;;29.90;51.90;;;;;;5096467;28;20047;-88
2021/07/07 11:48:49;;;;;;;3.38;2.45;;;30.00;51.80;;;;;;5096479;28;20024;-89
2021/07/07 11:51:22;;;;;;;2.38;2.17;;;30.00;51.70;;;;;;5079317;28;20031;-89
2021/07/07 11:53:53;;;;;;;1.80;1.50;;;30.10;51.20;;;;;;5096334;28;20070;-89
2021/07/07 11:56:21;;;;;;;2.45;2.25;;;30.10;51.00;;;;;;5096140;28;20027;-89
2021/07/07 11:58:48;;;;;;;3.78;2.90;;;30.20;50.90;;;;;;5095092;28;20081;-89
2021/07/07 12:01:14;;;;;;;2.58;2.25;;;30.30;50.80;;;;;;5096701;28;20027;-88
2021/07/07 12:03:40;;;;;;;2.60;2.35;;;30.50;50.90;;;;;;5096968;28;20477;-88
2021/07/07 12:06:44;;;;;;;2.50;2.30;;;30.60;50.30;;;;;;5095195;28;20042;-85
2021/07/07 12:09:20;;;;;;;2.17;1.98;;;30.70;50.00;;;;;;5092118;28;20024;-88
2021/07/07 12:12:09;;;;;;;3.38;2.70;;;31.00;49.60;;;;;;5093522;28;20032;-86
2021/07/07 12:14:37;;;;;;;3.22;2.38;;;31.20;48.80;;;;;;5092946;28;20028;-85
2021/07/07 12:17:04;;;;;;;2.70;2.50;;;31.30;49.20;;;;;;5096387;28;20493;-86
2021/07/07 12:19:31;;;;;;;2.40;2.20;;;31.50;49.60;;;;;;5096447;28;20027;-86
2021/07/07 12:22:02;;;;;;;3.28;2.35;;;31.70;49.30;;;;;;5096634;28;20470;-86
2021/07/07 12:24:32;;;;;;;2.80;2.60;;;32.00;48.20;;;;;;5096192;28;20423;-86
2021/07/07 12:27:01;;;;;;;2.97;2.50;;;32.10;48.70;;;;;;5096438;28;20023;-87
2021/07/07 12:29:28;;;;;;;5.03;2.47;;;32.50;49.20;;;;;;5096213;28;20028;-86
2021/07/07 12:32:02;;;;;;;2.60;2.40;;;33.00;48.80;;;;;;5090951;28;20445;-87
2021/07/07 12:34:38;;;;;;;2.00;1.90;;;33.50;47.60;;;;;;5084553;28;20117;-86
2021/07/07 12:37:13;;;;;;;3.75;2.97;;;33.80;47.40;;;;;;5102719;28;20098;-87
2021/07/07 12:39:52;;;;;;;2.47;2.25;;;34.20;44.20;;;;;;5084571;28;20051;-87
2021/07/07 12:42:39;;;;;;;2.28;2.00;;;34.40;46.30;;;;;;5090913;28;20424;-86
2021/07/07 12:45:24;;;;;;;2.60;2.40;;;34.80;46.10;;;;;;5094362;28;20047;-87
2021/07/07 12:48:10;;;;;;;3.38;2.17;;;35.40;44.90;;;;;;5113961;28;20106;-87
2021/07/07 12:50:41;;;;;;;2.80;2.60;;;35.60;43.00;;;;;;5089059;28;20051;-87
2021/07/07 12:53:06;;;;;;;4.00;2.20;;;35.80;43.80;;;;;;5077677;28;20040;-88